Time;durP1;ratioP1;P1;durP2;ratioP2;P2;SDS_P1;SDS_P2;PMS_P1;PMS_P2;Temp;Humidity;BMP_temperature;BMP_pressure;BME280_temperature;BME280_humidity;BME280_pressure;Samples;Min_cycle;Max_cycle;Signal;HPM_P1;HPM_P2
2021/03/18 00:02:12;;;;;;;8.83;4.20;;;;;;;;;;5059403;28;20480;-73
2021/03/18 00:04:41;;;;;;;6.07;4.20;;;;;;;;;;5057695;28;20708;-73
2021/03/18 00:07:09;;;;;;;9.30;6.17;;;;;;;;;;5058630;28;20839;-73
2021/03/18 00:09:38;;;;;;;9.07;5.27;;;;;;;;;;5058204;28;20488;-73
2021/03/18 00:12:09;;;;;;;11.27;4.70;;;;;;;;;;5057560;28;20458;-73
2021/03/18 00:14:38;;;;;;;7.93;5.20;;;;;;;;;;5058556;28;20470;-73
2021/03/18 00:17:07;;;;;;;8.17;5.67;;;;;;;;;;5057586;28;20462;-73
2021/03/18 00:19:36;;;;;;;9.43;5.10;;;;;;;;;;5058099;28;20829;-73
2021/03/18 00:22:10;;;;;;;9.53;4.90;;;;;;;;;;5057462;28;20461;-74
2021/03/18 00:24:38;;;;;;;7.80;4.90;;;;;;;;;;5057636;28;20552;-73
2021/03/18 00:27:06;;;;;;;7.03;4.90;;;;;;;;;;5058523;28;20812;-74
2021/03/18 00:29:35;;;;;;;7.07;4.37;;;;;;;;;;5058192;28;20462;-73
2021/03/18 00:32:04;;;;;;;8.27;5.60;;;;;;;;;;5057599;28;20461;-73
2021/03/18 00:34:32;;;;;;;11.73;5.13;;;;;;;;;;5073154;28;20550;-73
2021/03/18 00:37:01;;;;;;;7.93;4.73;;;;;;;;;;5078115;28;20465;-73
2021/03/18 00:39:34;;;;;;;9.50;4.50;;;;;;;;;;5077771;28;20522;-73
2021/03/18 00:42:02;;;;;;;8.47;4.50;;;;;;;;;;5079598;28;20469;-73
2021/03/18 00:44:32;;;;;;;8.03;4.23;;;;;;;;;;5077783;28;20534;-74
2021/03/18 00:47:02;;;;;;;5.97;3.90;;;;;;;;;;5080309;28;20496;-74
2021/03/18 00:49:33;;;;;;;4.20;3.80;;;;;;;;;;5078389;28;20465;-73
2021/03/18 00:52:01;;;;;;;8.00;4.20;;;;;;;;;;5080010;28;20570;-73
2021/03/18 00:54:32;;;;;;;6.97;5.17;;;;;;;;;;5079865;28;20467;-74
2021/03/18 00:57:02;;;;;;;12.17;4.70;;;;;;;;;;5077961;28;20466;-74
2021/03/18 00:59:31;;;;;;;7.70;4.60;;;;;;;;;;5063149;28;20507;-73
2021/03/18 01:02:00;;;;;;;9.53;5.50;;;;;;;;;;5057037;28;20460;-73
2021/03/18 01:04:30;;;;;;;7.90;5.77;;;;;;;;;;5057743;28;20456;-73
2021/03/18 01:06:59;;;;;;;8.33;4.97;;;;;;;;;;5063176;28;20517;-73
2021/03/18 01:09:30;;;;;;;6.20;4.27;;;;;;;;;;5077442;28;20730;-73
2021/03/18 01:12:02;;;;;;;6.27;4.33;;;;;;;;;;5064331;28;20473;-74
2021/03/18 01:14:31;;;;;;;10.03;5.00;;;;;;;;;;5058072;28;20454;-73
2021/03/18 01:17:00;;;;;;;5.93;4.20;;;;;;;;;;5057680;28;20472;-73
2021/03/18 01:19:30;;;;;;;7.77;4.70;;;;;;;;;;5057602;28;20465;-74
2021/03/18 01:22:00;;;;;;;8.50;5.33;;;;;;;;;;5058013;28;20561;-74
2021/03/18 01:24:30;;;;;;;6.73;4.77;;;;;;;;;;5058039;28;21077;-73
2021/03/18 01:27:01;;;;;;;5.50;3.50;;;;;;;;;;5072929;28;20490;-73
2021/03/18 01:29:30;;;;;;;7.10;5.00;;;;;;;;;;5077931;28;20555;-74
2021/03/18 01:31:58;;;;;;;9.23;5.07;;;;;;;;;;5075214;28;20525;-74
2021/03/18 01:34:27;;;;;;;8.53;4.73;;;;;;;;;;5078738;28;20527;-74
2021/03/18 01:37:00;;;;;;;6.07;4.17;;;;;;;;;;5078223;28;20926;-74
2021/03/18 01:39:30;;;;;;;8.10;4.30;;;;;;;;;;5077156;28;20452;-73
2021/03/18 01:41:59;;;;;;;6.33;4.20;;;;;;;;;;5078983;28;20529;-74
2021/03/18 01:44:28;;;;;;;8.77;4.07;;;;;;;;;;5077373;28;20453;-73
2021/03/18 01:47:00;;;;;;;6.20;4.30;;;;;;;;;;5078836;28;20928;-73
2021/03/18 01:49:30;;;;;;;4.93;3.80;;;;;;;;;;5077455;28;20483;-74
2021/03/18 01:52:02;;;;;;;5.30;3.80;;;;;;;;;;5076863;28;20500;-74
2021/03/18 01:54:34;;;;;;;10.70;5.03;;;;;;;;;;5078079;28;20468;-73
2021/03/18 01:57:02;;;;;;;5.50;4.47;;;;;;;;;;5078087;28;20464;-74
2021/03/18 01:59:32;;;;;;;7.57;5.00;;;;;;;;;;5076634;28;20526;-74
2021/03/18 02:02:00;;;;;;;4.80;3.60;;;;;;;;;;5078010;28;20511;-73
2021/03/18 02:04:30;;;;;;;6.03;4.60;;;;;;;;;;5060920;28;20454;-74
2021/03/18 02:07:01;;;;;;;8.83;4.37;;;;;;;;;;5057498;28;20559;-76
2021/03/18 02:09:30;;;;;;;5.63;4.07;;;;;;;;;;5063338;28;20456;-73
2021/03/18 02:11:58;;;;;;;8.10;4.83;;;;;;;;;;5077202;28;20851;-74
2021/03/18 02:14:25;;;;;;;6.73;3.97;;;;;;;;;;5078731;28;20863;-74
2021/03/18 02:16:55;;;;;;;9.90;5.47;;;;;;;;;;5078212;28;20452;-74
2021/03/18 02:19:35;;;;;;;6.13;4.03;;;;;;;;;;5077226;28;20468;-74
2021/03/18 02:22:26;;;;;;;8.07;5.20;;;;;;;;;;5078595;28;20475;-73
2021/03/18 02:25:02;;;;;;;5.73;4.70;;;;;;;;;;5057396;28;20527;-74
2021/03/18 02:27:44;;;;;;;8.60;5.63;;;;;;;;;;5057527;28;20555;-74
2021/03/18 02:30:32;;;;;;;7.90;5.10;;;;;;;;;;5058796;28;20461;-74
2021/03/18 02:33:32;;;;;;;6.03;4.70;;;;;;;;;;5057168;28;20474;-74
2021/03/18 02:36:03;;;;;;;8.63;5.03;;;;;;;;;;5056587;28;20470;-74
2021/03/18 02:38:32;;;;;;;10.73;5.80;;;;;;;;;;5058651;28;20519;-74
2021/03/18 02:41:04;;;;;;;7.00;5.07;;;;;;;;;;5059384;28;20469;-74
2021/03/18 02:43:34;;;;;;;7.70;5.40;;;;;;;;;;5060709;28;20723;-73
2021/03/18 02:46:02;;;;;;;7.20;5.30;;;;;;;;;;5060729;28;20497;-74
2021/03/18 02:48:31;;;;;;;10.40;6.40;;;;;;;;;;5060934;28;20485;-73
2021/03/18 02:50:59;;;;;;;10.10;6.50;;;;;;;;;;5060415;28;20527;-73
2021/03/18 02:53:28;;;;;;;9.40;5.83;;;;;;;;;;5060759;28;20454;-73
2021/03/18 02:55:57;;;;;;;7.07;5.30;;;;;;;;;;5061374;28;20500;-73
2021/03/18 02:58:27;;;;;;;9.90;5.80;;;;;;;;;;5059980;28;20493;-73
2021/03/18 03:00:56;;;;;;;9.83;5.03;;;;;;;;;;5078807;28;20475;-74
2021/03/18 03:03:24;;;;;;;9.60;5.90;;;;;;;;;;5078801;28;20463;-74
2021/03/18 03:05:53;;;;;;;11.57;6.93;;;;;;;;;;5079953;28;20492;-74
2021/03/18 03:08:24;;;;;;;9.80;6.30;;;;;;;;;;5060500;28;20537;-75
2021/03/18 03:10:53;;;;;;;9.30;5.90;;;;;;;;;;5060247;28;20496;-74
2021/03/18 03:13:20;;;;;;;8.50;7.33;;;;;;;;;;5060676;28;20493;-74
2021/03/18 03:15:50;;;;;;;15.60;7.07;;;;;;;;;;5060290;28;20469;-74
2021/03/18 03:18:19;;;;;;;11.03;7.33;;;;;;;;;;5060109;28;20456;-74
2021/03/18 03:20:46;;;;;;;6.67;5.13;;;;;;;;;;5059992;28;20476;-74
2021/03/18 03:23:14;;;;;;;10.33;7.43;;;;;;;;;;5059890;28;20457;-74
2021/03/18 03:25:42;;;;;;;8.37;6.33;;;;;;;;;;5059336;28;20473;-75
2021/03/18 03:28:11;;;;;;;10.07;6.67;;;;;;;;;;5061347;28;20527;-74
2021/03/18 03:30:39;;;;;;;9.93;6.97;;;;;;;;;;5059772;28;20454;-74
2021/03/18 03:33:07;;;;;;;11.60;7.17;;;;;;;;;;5059922;28;20468;-74
2021/03/18 03:35:34;;;;;;;11.70;7.30;;;;;;;;;;5061228;28;20463;-74
2021/03/18 03:38:02;;;;;;;11.57;7.20;;;;;;;;;;5059105;28;20465;-74
2021/03/18 03:40:29;;;;;;;11.70;7.30;;;;;;;;;;5062555;28;20489;-74
2021/03/18 03:42:57;;;;;;;12.50;9.03;;;;;;;;;;5059462;28;20450;-74
2021/03/18 03:45:26;;;;;;;12.17;7.27;;;;;;;;;;5060105;28;20558;-74
2021/03/18 03:47:54;;;;;;;10.97;7.67;;;;;;;;;;5059708;28;20495;-74
2021/03/18 03:50:22;;;;;;;13.37;8.67;;;;;;;;;;5059790;28;20531;-74
2021/03/18 03:52:55;;;;;;;12.47;8.80;;;;;;;;;;5060325;28;20462;-74
2021/03/18 03:55:28;;;;;;;14.93;9.60;;;;;;;;;;5059818;28;20468;-74
2021/03/18 03:57:58;;;;;;;11.23;8.57;;;;;;;;;;5061025;28;20467;-75
2021/03/18 04:03:31;;;;;;;12.97;10.50;;;;;;;;;;5060066;28;20413;-74
2021/03/18 04:06:00;;;;;;;15.67;8.53;;;;;;;;;;5059720;28;20581;-74
2021/03/18 04:08:29;;;;;;;12.73;9.33;;;;;;;;;;5059872;28;20469;-74
2021/03/18 04:11:01;;;;;;;12.13;8.70;;;;;;;;;;5063983;28;20895;-74
2021/03/18 04:13:30;;;;;;;13.10;8.70;;;;;;;;;;5079832;28;20880;-74
2021/03/18 04:15:59;;;;;;;11.93;8.50;;;;;;;;;;5074347;28;20469;-74
2021/03/18 04:18:34;;;;;;;15.23;8.20;;;;;;;;;;5078832;28;20476;-74
2021/03/18 04:21:10;;;;;;;13.97;9.20;;;;;;;;;;5068637;28;20461;-74
2021/03/18 04:23:38;;;;;;;12.37;8.50;;;;;;;;;;5059388;28;20457;-74
2021/03/18 04:26:05;;;;;;;14.10;9.40;;;;;;;;;;5058995;28;20490;-74
2021/03/18 04:28:34;;;;;;;10.63;7.87;;;;;;;;;;5058703;28;20454;-74
2021/03/18 04:31:08;;;;;;;11.40;8.70;;;;;;;;;;5060095;28;20512;-73
2021/03/18 04:34:04;;;;;;;;;;;;;;;;;;;;;
2021/03/18 04:36:33;;;;;;;11.37;8.33;;;;;;;;;;5064441;28;20461;-73
2021/03/18 04:39:01;;;;;;;12.47;8.30;;;;;;;;;;5079791;28;20537;-73
2021/03/18 04:41:29;;;;;;;12.33;8.57;;;;;;;;;;5069756;28;20450;-73
2021/03/18 04:44:01;;;;;;;10.43;8.07;;;;;;;;;;5058937;28;20507;-73
2021/03/18 04:46:30;;;;;;;13.27;8.20;;;;;;;;;;5057253;28;20810;-73
2021/03/18 04:48:59;;;;;;;12.07;9.13;;;;;;;;;;5057451;28;20732;-73
2021/03/18 04:51:26;;;;;;;11.80;7.90;;;;;;;;;;5063991;28;20861;-74
2021/03/18 04:53:55;;;;;;;11.67;8.27;;;;;;;;;;5057382;28;20454;-74
2021/03/18 04:56:22;;;;;;;14.20;9.63;;;;;;;;;;5058050;28;20738;-73
2021/03/18 04:58:54;;;;;;;10.77;7.23;;;;;;;;;;5057816;28;20490;-73
2021/03/18 05:01:23;;;;;;;18.63;11.33;;;;;;;;;;5057046;28;20450;-73
2021/03/18 05:03:51;;;;;;;10.63;8.97;;;;;;;;;;5075506;28;20464;-73
2021/03/18 05:06:21;;;;;;;12.40;6.03;;;;;;;;;;5077159;28;20481;-73
2021/03/18 05:08:48;;;;;;;15.67;10.00;;;;;;;;;;5076716;28;20465;-73
2021/03/18 05:11:17;;;;;;;17.70;11.43;;;;;;;;;;5077372;28;20452;-73
2021/03/18 05:13:46;;;;;;;21.50;13.10;;;;;;;;;;5077485;28;20580;-74
2021/03/18 05:16:14;;;;;;;20.80;11.33;;;;;;;;;;5076828;28;20457;-74
2021/03/18 05:18:47;;;;;;;19.30;11.80;;;;;;;;;;5075984;28;20469;-74
2021/03/18 05:21:15;;;;;;;25.30;11.73;;;;;;;;;;5078014;28;20453;-74
2021/03/18 05:23:43;;;;;;;18.60;10.80;;;;;;;;;;5077751;28;20544;-74
2021/03/18 05:26:11;;;;;;;12.43;9.07;;;;;;;;;;5074224;28;20494;-74
2021/03/18 05:31:42;;;;;;;21.50;13.17;;;;;;;;;;5067918;28;20437;-73
2021/03/18 05:42:40;;;;;;;13.80;7.73;;;;;;;;;;5072304;28;20614;-73
2021/03/18 05:45:35;;;;;;;;;;;;;;;;;;;;;
2021/03/18 05:48:17;;;;;;;20.40;10.10;;;;;;;;;;5071967;28;20495;-73
2021/03/18 05:50:46;;;;;;;21.63;11.70;;;;;;;;;;5058099;28;20742;-74
2021/03/18 05:53:13;;;;;;;18.50;10.87;;;;;;;;;;5057357;28;20462;-73
2021/03/18 05:55:50;;;;;;;15.90;9.97;;;;;;;;;;5056511;28;20458;-74
2021/03/18 05:58:43;;;;;;;20.37;9.73;;;;;;;;;;5056556;28;20457;-73
2021/03/18 06:01:11;;;;;;;19.07;9.87;;;;;;;;;;5056289;28;20907;-74
2021/03/18 06:03:38;;;;;;;15.23;8.57;;;;;;;;;;5055828;28;20562;-73
2021/03/18 06:06:08;;;;;;;25.30;11.30;;;;;;;;;;5056048;28;20512;-73
2021/03/18 06:08:37;;;;;;;19.50;11.57;;;;;;;;;;5056603;28;20459;-73
2021/03/18 06:11:05;;;;;;;18.50;10.57;;;;;;;;;;5057757;28;20452;-73
2021/03/18 06:13:33;;;;;;;17.30;11.20;;;;;;;;;;5056760;28;20467;-73
2021/03/18 06:16:02;;;;;;;14.83;7.90;;;;;;;;;;5057686;28;20722;-73
2021/03/18 06:18:29;;;;;;;14.17;8.67;;;;;;;;;;5059327;28;20450;-73
2021/03/18 06:20:57;;;;;;;13.80;8.67;;;;;;;;;;5059103;28;20858;-73
2021/03/18 06:23:28;;;;;;;15.00;9.47;;;;;;;;;;5059860;28;20905;-73
2021/03/18 06:25:58;;;;;;;15.00;9.43;;;;;;;;;;5059427;28;21011;-73
2021/03/18 06:28:26;;;;;;;18.13;10.63;;;;;;;;;;5059247;28;20591;-73
2021/03/18 06:31:18;;;;;;;17.50;9.43;;;;;;;;;;5058738;28;20720;-73
2021/03/18 06:33:55;;;;;;;13.23;9.87;;;;;;;;;;5058879;28;20468;-73
2021/03/18 06:36:32;;;;;;;15.67;9.30;;;;;;;;;;5058589;28;20576;-73
2021/03/18 06:39:03;;;;;;;18.53;10.40;;;;;;;;;;5057211;28;20536;-73
2021/03/18 06:41:32;;;;;;;20.13;6.40;;;;;;;;;;5059637;28;20530;-73
2021/03/18 06:43:59;;;;;;;14.73;7.57;;;;;;;;;;5059095;28;20454;-74
2021/03/18 06:46:31;;;;;;;18.77;10.10;;;;;;;;;;5059099;28;20496;-73
2021/03/18 06:49:10;;;;;;;12.10;6.77;;;;;;;;;;5058966;28;20465;-73
2021/03/18 06:51:38;;;;;;;14.57;8.00;;;;;;;;;;5059713;28;20468;-73
2021/03/18 06:54:18;;;;;;;14.07;8.67;;;;;;;;;;5058561;28;20526;-73
2021/03/18 06:56:55;;;;;;;12.17;7.80;;;;;;;;;;5058353;28;20510;-73
2021/03/18 06:59:25;;;;;;;17.33;6.37;;;;;;;;;;5058316;28;20969;-74
2021/03/18 07:02:07;;;;;;;14.33;7.37;;;;;;;;;;5059621;28;21025;-73
2021/03/18 07:04:35;;;;;;;13.80;7.43;;;;;;;;;;5059844;28;20458;-73
2021/03/18 07:07:02;;;;;;;12.13;6.80;;;;;;;;;;5059113;28;20490;-73
2021/03/18 07:09:57;;;;;;;14.27;9.27;;;;;;;;;;5059377;28;20520;-73
2021/03/18 07:12:28;;;;;;;14.87;7.77;;;;;;;;;;5059347;28;20468;-73
2021/03/18 07:15:00;;;;;;;10.13;6.50;;;;;;;;;;5057887;28;20458;-74
2021/03/18 07:17:30;;;;;;;11.33;6.20;;;;;;;;;;5057894;28;20751;-73
2021/03/18 07:20:17;;;;;;;10.43;4.73;;;;;;;;;;5057888;28;20477;-73
2021/03/18 07:22:45;;;;;;;10.30;5.33;;;;;;;;;;5057445;28;20465;-73
2021/03/18 07:25:16;;;;;;;9.40;5.57;;;;;;;;;;5057487;28;20454;-73
2021/03/18 07:27:57;;;;;;;11.33;6.77;;;;;;;;;;5056016;28;21018;-73
2021/03/18 07:30:31;;;;;;;7.77;5.33;;;;;;;;;;5057934;28;20460;-74
2021/03/18 07:33:08;;;;;;;12.13;6.57;;;;;;;;;;5059896;28;20486;-74
2021/03/18 07:35:36;;;;;;;9.63;6.57;;;;;;;;;;5056999;28;20454;-74
2021/03/18 07:38:03;;;;;;;8.47;5.00;;;;;;;;;;5058861;28;20484;-74
2021/03/18 07:40:32;;;;;;;10.60;5.83;;;;;;;;;;5058318;28;20460;-73
2021/03/18 07:43:09;;;;;;;9.33;5.40;;;;;;;;;;5058037;28;20457;-73
2021/03/18 07:45:36;;;;;;;7.87;4.40;;;;;;;;;;5059780;28;20522;-73
2021/03/18 07:48:08;;;;;;;9.40;5.33;;;;;;;;;;5058290;28;20486;-73
2021/03/18 07:50:43;;;;;;;11.50;6.77;;;;;;;;;;5060285;28;20454;-74
2021/03/18 07:53:15;;;;;;;13.10;6.20;;;;;;;;;;5061494;28;20901;-73
2021/03/18 07:55:44;;;;;;;11.10;5.17;;;;;;;;;;5067771;28;20902;-73
2021/03/18 07:58:12;;;;;;;9.23;4.70;;;;;;;;;;5057868;28;20467;-73
2021/03/18 08:00:41;;;;;;;10.10;5.07;;;;;;;;;;5058924;28;20446;-74
2021/03/18 08:03:34;;;;;;;8.80;4.93;;;;;;;;;;5071951;28;20543;-74
2021/03/18 08:06:01;;;;;;;6.07;4.70;;;;;;;;;;5058132;28;20465;-73
2021/03/18 08:08:51;;;;;;;12.43;6.40;;;;;;;;;;5071800;28;20514;-74
2021/03/18 08:11:36;;;;;;;12.50;5.70;;;;;;;;;;5098242;28;20496;-74
2021/03/18 08:14:13;;;;;;;13.27;6.00;;;;;;;;;;5061779;28;20452;-74
2021/03/18 08:16:41;;;;;;;11.40;6.20;;;;;;;;;;5071267;28;20891;-74
2021/03/18 08:19:31;;;;;;;10.37;5.90;;;;;;;;;;5061905;28;20458;-74
2021/03/18 08:21:59;;;;;;;11.57;6.70;;;;;;;;;;5056912;28;20512;-74
2021/03/18 08:25:09;;;;;;;10.20;5.20;;;;;;;;;;5058071;28;20710;-74
2021/03/18 08:27:44;;;;;;;12.90;5.90;;;;;;;;;;5056836;28;20490;-73
2021/03/18 08:30:21;;;;;;;12.07;5.00;;;;;;;;;;5056395;28;20519;-73
2021/03/18 08:32:48;;;;;;;9.73;5.93;;;;;;;;;;5056724;28;20466;-73
2021/03/18 08:35:34;;;;;;;10.50;5.23;;;;;;;;;;5058320;28;21100;-73
2021/03/18 08:38:14;;;;;;;10.10;5.47;;;;;;;;;;5055677;28;20563;-73
2021/03/18 08:43:53;;;;;;;9.87;6.20;;;;;;;;;;5056136;28;20472;-73
2021/03/18 08:46:37;;;;;;;9.43;5.67;;;;;;;;;;5066234;28;20453;-73
2021/03/18 08:49:45;;;;;;;;;;;;;;;;;;;;;
2021/03/18 08:52:55;;;;;;;14.67;9.37;;;;;;;;;;5010110;28;20463;-73
2021/03/18 08:55:36;;;;;;;11.23;6.53;;;;;;;;;;5015837;28;20467;-72
2021/03/18 08:58:08;;;;;;;13.63;7.13;;;;;;;;;;5015544;28;20954;-73
2021/03/18 09:00:39;;;;;;;10.83;5.77;;;;;;;;;;5041076;28;20446;-73
2021/03/18 09:03:08;;;;;;;9.97;5.77;;;;;;;;;;5054407;28;20479;-73
2021/03/18 09:05:44;;;;;;;11.20;5.63;;;;;;;;;;5055755;28;20466;-73
2021/03/18 09:08:13;;;;;;;9.70;6.00;;;;;;;;;;5057404;28;20485;-73
2021/03/18 09:10:50;;;;;;;11.37;4.40;;;;;;;;;;5055505;28;20898;-74
2021/03/18 09:13:27;;;;;;;15.30;6.43;;;;;;;;;;5072743;28;20542;-72
2021/03/18 09:15:58;;;;;;;10.07;6.50;;;;;;;;;;5095984;28;20460;-73
2021/03/18 09:18:26;;;;;;;11.33;6.13;;;;;;;;;;5096249;28;20599;-73
2021/03/18 09:20:58;;;;;;;13.63;7.80;;;;;;;;;;5096340;28;21077;-73
2021/03/18 09:23:30;;;;;;;15.27;8.97;;;;;;;;;;5096077;28;20463;-73
2021/03/18 09:25:58;;;;;;;8.20;4.63;;;;;;;;;;5095266;28;20487;-73
2021/03/18 09:28:35;;;;;;;11.87;7.60;;;;;;;;;;5086119;28;20517;-73
2021/03/18 09:31:03;;;;;;;11.00;7.37;;;;;;;;;;5057958;28;20477;-73
2021/03/18 09:33:32;;;;;;;9.70;5.80;;;;;;;;;;5055859;28;20458;-73
2021/03/18 09:36:01;;;;;;;9.87;5.87;;;;;;;;;;5068234;28;20457;-74
2021/03/18 09:38:31;;;;;;;12.30;6.30;;;;;;;;;;5057406;28;20983;-73
2021/03/18 09:41:07;;;;;;;13.80;6.90;;;;;;;;;;5057080;28;20496;-73
2021/03/18 09:43:35;;;;;;;10.50;6.03;;;;;;;;;;5059828;28;20772;-74
2021/03/18 09:46:08;;;;;;;10.13;5.27;;;;;;;;;;5056654;28;20482;-73
2021/03/18 09:48:46;;;;;;;9.97;6.80;;;;;;;;;;5060284;28;20465;-74
2021/03/18 09:51:16;;;;;;;9.80;6.20;;;;;;;;;;5076609;28;20476;-73
2021/03/18 09:53:57;;;;;;;12.00;6.80;;;;;;;;;;5075946;28;20468;-73
2021/03/18 09:56:25;;;;;;;9.97;4.77;;;;;;;;;;5076522;28;20596;-73
2021/03/18 09:58:55;;;;;;;10.70;5.80;;;;;;;;;;5077105;28;20910;-73
2021/03/18 10:01:31;;;;;;;11.17;6.27;;;;;;;;;;5070068;28;20838;-74
2021/03/18 10:04:00;;;;;;;11.23;5.97;;;;;;;;;;5075264;28;20514;-73
2021/03/18 10:06:30;;;;;;;13.73;7.80;;;;;;;;;;5076748;28;20529;-73
2021/03/18 10:09:13;;;;;;;10.90;6.70;;;;;;;;;;5071587;28;20594;-73
2021/03/18 10:11:44;;;;;;;9.80;5.97;;;;;;;;;;5075930;28;20471;-74
2021/03/18 10:14:16;;;;;;;10.10;6.80;;;;;;;;;;5055723;28;20450;-73
2021/03/18 10:16:47;;;;;;;9.03;5.00;;;;;;;;;;5055853;28;20461;-73
2021/03/18 10:19:17;;;;;;;9.40;6.13;;;;;;;;;;5055744;28;20473;-73
2021/03/18 10:21:45;;;;;;;10.87;5.70;;;;;;;;;;5062443;28;20515;-74
2021/03/18 10:24:14;;;;;;;7.07;4.63;;;;;;;;;;5057094;28;20461;-74
2021/03/18 10:26:48;;;;;;;10.23;6.20;;;;;;;;;;5056648;28;20564;-73
2021/03/18 10:29:25;;;;;;;10.63;5.20;;;;;;;;;;5063281;28;20450;-73
2021/03/18 10:31:52;;;;;;;9.97;6.00;;;;;;;;;;5055261;28;20458;-73
2021/03/18 10:34:25;;;;;;;11.13;6.10;;;;;;;;;;5056110;28;20840;-73
2021/03/18 10:36:55;;;;;;;10.70;5.80;;;;;;;;;;5056115;28;20459;-73
2021/03/18 10:39:25;;;;;;;13.63;6.60;;;;;;;;;;5055179;28;20516;-73
2021/03/18 10:41:57;;;;;;;7.83;5.47;;;;;;;;;;5055516;28;20454;-73
2021/03/18 10:44:43;;;;;;;12.20;7.67;;;;;;;;;;5058096;28;20561;-73
2021/03/18 10:47:19;;;;;;;10.33;5.83;;;;;;;;;;5054389;28;20487;-73
2021/03/18 10:50:00;;;;;;;10.33;5.70;;;;;;;;;;5055037;28;20881;-74
2021/03/18 10:52:28;;;;;;;7.87;5.10;;;;;;;;;;5054383;28;20753;-73
2021/03/18 10:54:59;;;;;;;13.20;6.60;;;;;;;;;;5063409;28;20508;-73
2021/03/18 10:57:36;;;;;;;14.40;7.07;;;;;;;;;;5065199;28;20470;-73
2021/03/18 11:00:08;;;;;;;10.70;6.37;;;;;;;;;;5070176;28;20484;-73
2021/03/18 11:02:37;;;;;;;12.80;5.57;;;;;;;;;;5069417;28;20485;-74
2021/03/18 11:05:05;;;;;;;8.27;4.87;;;;;;;;;;5061587;28;20458;-73
2021/03/18 11:07:46;;;;;;;6.37;3.73;;;;;;;;;;5068351;28;20481;-73
2021/03/18 11:10:16;;;;;;;11.37;5.43;;;;;;;;;;5059100;28;20454;-73
2021/03/18 11:12:59;;;;;;;8.63;3.73;;;;;;;;;;5061629;28;20481;-73
2021/03/18 11:15:28;;;;;;;11.70;6.83;;;;;;;;;;5073462;28;20464;-73
2021/03/18 11:18:08;;;;;;;8.97;5.73;;;;;;;;;;5072487;28;20476;-72
2021/03/18 11:20:37;;;;;;;5.47;3.90;;;;;;;;;;5068530;28;20912;-72
2021/03/18 11:23:07;;;;;;;8.70;4.97;;;;;;;;;;5078985;28;20473;-72
2021/03/18 11:25:36;;;;;;;13.77;6.50;;;;;;;;;;5080050;28;20465;-72
2021/03/18 11:28:06;;;;;;;9.17;5.73;;;;;;;;;;5065817;28;20491;-73
2021/03/18 11:30:35;;;;;;;9.00;4.27;;;;;;;;;;5064704;28;20457;-70
2021/03/18 11:33:14;;;;;;;11.47;5.50;;;;;;;;;;5059281;28;20490;-72
2021/03/18 11:35:52;;;;;;;12.23;6.10;;;;;;;;;;5056884;28;20460;-74
2021/03/18 11:38:26;;;;;;;9.60;5.40;;;;;;;;;;5057295;28;20920;-73
2021/03/18 11:40:56;;;;;;;12.20;7.00;;;;;;;;;;5056674;28;20462;-72
2021/03/18 11:43:25;;;;;;;10.00;6.27;;;;;;;;;;5059976;28;20922;-73
2021/03/18 11:45:55;;;;;;;10.60;5.30;;;;;;;;;;5060266;28;20520;-73
2021/03/18 11:48:23;;;;;;;6.97;4.33;;;;;;;;;;5073913;28;20881;-73
2021/03/18 11:51:05;;;;;;;11.90;5.67;;;;;;;;;;5069910;28;20508;-73
2021/03/18 11:53:34;;;;;;;11.70;7.80;;;;;;;;;;5078972;28;20466;-72
2021/03/18 11:56:02;;;;;;;10.43;5.57;;;;;;;;;;5077242;28;20459;-73
2021/03/18 11:58:34;;;;;;;9.23;5.77;;;;;;;;;;5075395;28;20475;-72
2021/03/18 12:01:04;;;;;;;10.03;5.90;;;;;;;;;;5076992;28;20449;-72
2021/03/18 12:03:35;;;;;;;8.73;5.57;;;;;;;;;;5078157;28;20467;-73
2021/03/18 12:06:05;;;;;;;9.07;5.20;;;;;;;;;;5070616;28;20530;-73
2021/03/18 12:08:36;;;;;;;12.90;5.00;;;;;;;;;;5080691;28;20483;-72
2021/03/18 12:11:05;;;;;;;8.30;4.63;;;;;;;;;;5098520;28;20469;-73
2021/03/18 12:13:34;;;;;;;10.10;5.47;;;;;;;;;;5097907;28;20444;-73
2021/03/18 12:16:02;;;;;;;9.40;4.77;;;;;;;;;;5083394;28;20569;-73
2021/03/18 12:18:40;;;;;;;9.83;5.50;;;;;;;;;;5057128;28;20473;-73
2021/03/18 12:21:08;;;;;;;9.27;5.20;;;;;;;;;;5065368;28;20474;-73
2021/03/18 12:23:37;;;;;;;8.47;4.50;;;;;;;;;;5057786;28;20467;-73
2021/03/18 12:26:09;;;;;;;6.40;3.57;;;;;;;;;;5064463;28;20510;-74
2021/03/18 12:28:41;;;;;;;11.50;5.87;;;;;;;;;;5066828;28;20514;-73
2021/03/18 12:31:09;;;;;;;12.50;5.83;;;;;;;;;;5056957;28;20452;-73
2021/03/18 12:33:42;;;;;;;9.83;4.53;;;;;;;;;;5069616;28;20555;-72
2021/03/18 12:36:13;;;;;;;10.50;5.13;;;;;;;;;;5056348;28;20534;-72
2021/03/18 12:38:41;;;;;;;11.00;5.60;;;;;;;;;;5056777;28;20471;-73
2021/03/18 12:41:14;;;;;;;8.13;3.73;;;;;;;;;;5061129;28;20464;-72
2021/03/18 12:43:49;;;;;;;8.30;4.73;;;;;;;;;;5071498;28;20555;-72
2021/03/18 12:46:26;;;;;;;9.00;4.93;;;;;;;;;;5061220;28;20535;-72
2021/03/18 12:49:29;;;;;;;11.57;5.67;;;;;;;;;;5063751;28;20458;-72
2021/03/18 12:52:04;;;;;;;8.40;5.23;;;;;;;;;;5063089;28;20606;-72
2021/03/18 12:54:49;;;;;;;8.77;5.67;;;;;;;;;;5076585;28;20468;-72
2021/03/18 12:57:21;;;;;;;10.60;5.83;;;;;;;;;;5079164;28;20482;-72
2021/03/18 13:00:10;;;;;;;12.10;5.60;;;;;;;;;;5074496;28;20471;-72
2021/03/18 13:02:39;;;;;;;9.10;4.10;;;;;;;;;;5055763;28;20572;-72
2021/03/18 13:05:15;;;;;;;10.30;5.20;;;;;;;;;;5055749;28;20473;-74
2021/03/18 13:07:43;;;;;;;9.47;3.57;;;;;;;;;;5056199;28;20528;-75
2021/03/18 13:10:11;;;;;;;8.43;4.53;;;;;;;;;;5056307;28;20456;-74
2021/03/18 13:12:49;;;;;;;10.17;4.90;;;;;;;;;;5056669;28;20500;-75
2021/03/18 13:15:28;;;;;;;11.40;5.27;;;;;;;;;;5055108;28;20596;-74
2021/03/18 13:18:00;;;;;;;6.90;3.53;;;;;;;;;;5054551;28;20502;-74
2021/03/18 13:20:30;;;;;;;7.70;4.73;;;;;;;;;;5058476;28;20939;-74
2021/03/18 13:23:05;;;;;;;7.03;3.33;;;;;;;;;;5067379;28;20476;-74
2021/03/18 13:25:56;;;;;;;6.70;3.70;;;;;;;;;;5074844;28;20446;-74
2021/03/18 13:28:28;;;;;;;4.97;3.30;;;;;;;;;;5070751;28;20487;-74
2021/03/18 13:31:17;;;;;;;7.03;3.70;;;;;;;;;;5070016;28;20456;-75
2021/03/18 13:33:57;;;;;;;7.37;4.13;;;;;;;;;;5058086;28;20628;-73
2021/03/18 13:36:32;;;;;;;7.50;3.67;;;;;;;;;;5056184;28;20560;-74
2021/03/18 13:39:10;;;;;;;6.37;4.43;;;;;;;;;;5055919;28;20475;-74
2021/03/18 13:41:46;;;;;;;7.20;3.87;;;;;;;;;;5054651;28;20483;-72
2021/03/18 13:44:16;;;;;;;7.63;4.00;;;;;;;;;;5054099;28;20472;-72
2021/03/18 13:46:58;;;;;;;6.43;3.67;;;;;;;;;;5053311;28;20452;-72
2021/03/18 13:49:28;;;;;;;6.93;4.10;;;;;;;;;;5054962;28;20797;-72
2021/03/18 13:52:19;;;;;;;5.53;3.87;;;;;;;;;;5058474;28;20469;-73
2021/03/18 13:54:48;;;;;;;8.60;4.23;;;;;;;;;;5055155;28;20524;-72
2021/03/18 13:57:16;;;;;;;5.90;2.57;;;;;;;;;;5057337;28;20818;-72
2021/03/18 13:59:45;;;;;;;5.53;3.40;;;;;;;;;;5057116;28;20941;-71
2021/03/18 14:02:21;;;;;;;6.10;4.20;;;;;;;;;;5055449;28;20816;-71
2021/03/18 14:04:57;;;;;;;6.93;3.97;;;;;;;;;;5055256;28;20726;-72
2021/03/18 14:07:32;;;;;;;6.90;3.90;;;;;;;;;;5053503;28;20484;-72
2021/03/18 14:10:32;;;;;;;6.10;3.40;;;;;;;;;;5053855;28;20968;-72
2021/03/18 14:13:02;;;;;;;8.03;3.83;;;;;;;;;;5058838;28;20501;-72
2021/03/18 14:15:33;;;;;;;7.63;3.80;;;;;;;;;;5058326;28;20459;-73
2021/03/18 14:18:08;;;;;;;5.30;3.73;;;;;;;;;;5055519;28;20907;-72
2021/03/18 14:20:41;;;;;;;8.50;4.50;;;;;;;;;;5056183;28;20458;-73
2021/03/18 14:23:12;;;;;;;5.53;3.20;;;;;;;;;;5057301;28;20497;-73
2021/03/18 14:25:54;;;;;;;5.00;3.03;;;;;;;;;;5064621;28;20444;-73
2021/03/18 14:28:26;;;;;;;3.90;3.00;;;;;;;;;;5074698;28;20486;-73
2021/03/18 14:30:53;;;;;;;5.40;3.60;;;;;;;;;;5073559;28;20577;-74
2021/03/18 14:33:24;;;;;;;4.80;3.33;;;;;;;;;;5074553;28;20858;-76
2021/03/18 14:35:53;;;;;;;4.00;3.60;;;;;;;;;;5074007;28;20483;-74
2021/03/18 14:38:23;;;;;;;4.67;4.00;;;;;;;;;;5079204;28;20741;-74
2021/03/18 14:40:59;;;;;;;5.17;3.90;;;;;;;;;;5063896;28;20554;-74
2021/03/18 14:43:30;;;;;;;5.63;3.53;;;;;;;;;;5059801;28;20450;-73
2021/03/18 14:45:58;;;;;;;3.60;2.83;;;;;;;;;;5067660;28;20468;-72
2021/03/18 14:48:31;;;;;;;5.50;3.90;;;;;;;;;;5079701;28;20480;-73
2021/03/18 14:51:03;;;;;;;5.00;3.30;;;;;;;;;;5079788;28;20465;-73
2021/03/18 14:53:32;;;;;;;6.00;3.60;;;;;;;;;;5077944;28;20897;-74
2021/03/18 14:56:00;;;;;;;6.30;4.00;;;;;;;;;;5078552;28;20843;-74
2021/03/18 14:58:31;;;;;;;8.83;4.67;;;;;;;;;;5078495;28;21080;-74
2021/03/18 15:00:59;;;;;;;11.60;4.00;;;;;;;;;;5062443;28;20467;-73
2021/03/18 15:03:27;;;;;;;6.80;3.80;;;;;;;;;;5059827;28;20454;-75
2021/03/18 15:05:58;;;;;;;5.80;3.90;;;;;;;;;;5061052;28;20465;-74
2021/03/18 15:08:29;;;;;;;6.70;3.70;;;;;;;;;;5060530;28;20476;-74
2021/03/18 15:14:01;;;;;;;5.03;3.40;;;;;;;;;;5066242;28;20490;-74
2021/03/18 15:16:42;;;;;;;6.67;4.47;;;;;;;;;;5057475;28;20450;-74
2021/03/18 15:19:10;;;;;;;6.67;4.60;;;;;;;;;;5058604;28;20588;-72
2021/03/18 15:21:50;;;;;;;6.73;3.53;;;;;;;;;;5062563;28;20484;-72
2021/03/18 15:24:43;;;;;;;7.50;4.73;;;;;;;;;;5062037;28;20854;-73
2021/03/18 15:27:11;;;;;;;10.80;6.47;;;;;;;;;;5060873;28;20493;-73
2021/03/18 15:29:44;;;;;;;6.87;5.30;;;;;;;;;;5060789;28;20475;-73
2021/03/18 15:32:29;;;;;;;7.07;5.30;;;;;;;;;;5057840;28;20468;-73